Time,TemperatureF,DewpointF,PressureIn,WindDirection,WindDirectionDegrees,WindSpeedMPH,WindSpeedGustMPH,Humidity,HourlyPrecipIn,Conditions,Clouds,dailyrainin,SoftwareType,DateUTC
2013-09-23 00:14:00,56.0,55.0,29.85,SE,135,0.0,-999.0,98,-99.99,,,-99.99,,2013-09-23 04:14:00,
2013-09-23 00:24:00,56.0,55.0,29.85,SE,135,0.0,-999.0,98,-99.99,,,-99.99,,2013-09-23 04:24:00,
2013-09-23 00:43:00,56.0,55.0,29.85,SE,141,0.0,-999.0,98,-99.99,,,-99.99,,2013-09-23 04:43:00,
2013-09-23 00:54:00,56.0,55.0,29.86,SE,133,0.0,-999.0,97,-99.99,,,-99.99,,2013-09-23 04:54:00,
2013-09-23 01:12:00,55.0,54.0,29.87,SE,125,0.0,-999.0,98,-99.99,,,-99.99,,2013-09-23 05:12:00,
2013-09-23 01:23:00,55.0,54.0,29.86,SSE,159,1.0,-999.0,97,-99.99,,,-99.99,,2013-09-23 05:23:00,
2013-09-23 01:43:00,55.0,54.0,29.86,SE,128,0.0,-999.0,97,-99.99,,,-99.99,,2013-09-23 05:43:00,
2013-09-23 01:53:00,55.0,54.0,29.87,SSE,153,0.0,-999.0,97,-99.99,,,-99.99,,2013-09-23 05:53:00,
2013-09-23 02:13:00,55.0,54.0,29.87,SE,124,0.0,-999.0,96,-99.99,,,-99.99,,2013-09-23 06:13:00,
2013-09-23 02:22:00,55.0,54.0,29.86,SE,125,0.0,-999.0,96,-99.99,,,-99.99,,2013-09-23 06:22:00,
2013-09-23 02:52:00,54.0,53.0,29.86,SE,138,0.0,-999.0,95,-99.99,,,-99.99,,2013-09-23 06:52:00,
2013-09-23 03:12:00,54.0,53.0,29.86,ESE,112,0.0,-999.0,95,-99.99,,,-99.99,,2013-09-23 07:12:00,
2013-09-23 03:22:00,54.0,53.0,29.86,East,98,0.0,-999.0,95,-99.99,,,-99.99,,2013-09-23 07:22:00,
2013-09-23 03:52:00,53.0,52.0,29.85,ENE,69,0.0,-999.0,97,-99.99,,,-99.99,,2013-09-23 07:52:00,
2013-09-23 04:11:00,53.0,52.0,29.87,East,101,0.0,-999.0,97,-99.99,,,-99.99,,2013-09-23 08:11:00,
2013-09-23 04:23:00,52.0,50.0,29.87,North,360,0.0,-999.0,94,-99.99,,,-99.99,,2013-09-23 08:23:00,
2013-09-23 04:42:00,52.0,50.0,29.87,North,360,1.0,-999.0,94,-99.99,,,-99.99,,2013-09-23 08:42:00,
2013-09-23 04:52:00,52.0,50.0,29.87,North,360,0.0,-999.0,94,-99.99,,,-99.99,,2013-09-23 08:52:00,
2013-09-23 05:11:00,52.0,50.0,29.88,North,360,1.0,-999.0,94,-99.99,,,-99.99,,2013-09-23 09:11:00,
2013-09-23 05:22:00,52.0,50.0,29.88,North,360,0.0,-999.0,93,-99.99,,,-99.99,,2013-09-23 09:22:00,
2013-09-23 05:53:00,52.0,50.0,29.88,North,360,1.0,-999.0,92,-99.99,,,-99.99,,2013-09-23 09:53:00,
2013-09-23 06:13:00,52.0,50.0,29.88,North,360,1.0,-999.0,92,-99.99,,,-99.99,,2013-09-23 10:13:00,
2013-09-23 06:23:00,52.0,50.0,29.88,North,360,1.0,-999.0,92,-99.99,,,-99.99,,2013-09-23 10:23:00,
2013-09-23 06:42:00,52.0,50.0,29.92,North,360,0.0,-999.0,93,-99.99,,,-99.99,,2013-09-23 10:42:00,
2013-09-23 06:53:00,52.0,50.0,29.92,North,360,1.0,-999.0,93,-99.99,,,-99.99,,2013-09-23 10:53:00,
2013-09-23 07:12:00,52.0,50.0,29.93,North,360,1.0,-999.0,93,-99.99,,,-99.99,,2013-09-23 11:12:00,
2013-09-23 07:22:00,51.0,49.0,29.96,North,360,0.0,-999.0,94,-99.99,,,-99.99,,2013-09-23 11:22:00,
2013-09-23 07:52:00,51.0,50.0,29.97,North,360,0.0,-999.0,95,-99.99,,,-99.99,,2013-09-23 11:52:00,
2013-09-23 08:11:00,51.0,50.0,29.98,North,360,0.0,-999.0,96,-99.99,,,-99.99,,2013-09-23 12:11:00,
2013-09-23 08:22:00,51.0,50.0,29.99,North,360,0.0,-999.0,96,-99.99,,,-99.99,,2013-09-23 12:22:00,
2013-09-23 08:52:00,51.0,50.0,30.00,North,360,0.0,-999.0,95,-99.99,,,-99.99,,2013-09-23 12:52:00,
2013-09-23 09:11:00,52.0,51.0,30.00,North,360,0.0,-999.0,95,-99.99,,,-99.99,,2013-09-23 13:11:00,
2013-09-23 09:22:00,52.0,50.0,29.99,North,360,0.0,-999.0,94,-99.99,,,-99.99,,2013-09-23 13:22:00,
2013-09-23 09:42:00,53.0,51.0,29.99,North,360,0.0,-999.0,93,-99.99,,,-99.99,,2013-09-23 13:42:00,
2013-09-23 09:52:00,53.0,51.0,30.00,North,360,1.0,-999.0,93,-99.99,,,-99.99,,2013-09-23 13:52:00,
2013-09-23 10:12:00,52.0,50.0,30.00,North,360,2.0,-999.0,93,-99.99,,,-99.99,,2013-09-23 14:12:00,
2013-09-23 10:22:00,53.0,51.0,30.00,East,101,1.0,-999.0,93,-99.99,,,-99.99,,2013-09-23 14:22:00,
2013-09-23 10:42:00,54.0,52.0,30.00,ENE,76,1.0,-999.0,94,-99.99,,,-99.99,,2013-09-23 14:42:00,
2013-09-23 10:52:00,55.0,53.0,29.99,East,101,1.0,-999.0,92,-99.99,,,-99.99,,2013-09-23 14:52:00,
2013-09-23 11:12:00,55.0,52.0,29.99,East,101,1.0,-999.0,91,-99.99,,,-99.99,,2013-09-23 15:12:00,
2013-09-23 11:22:00,55.0,52.0,30.00,SE,136,1.0,-999.0,91,-99.99,,,-99.99,,2013-09-23 15:22:00,
2013-09-23 11:43:00,55.0,52.0,30.00,ESE,117,0.0,-999.0,91,-99.99,,,-99.99,,2013-09-23 15:43:00,
2013-09-23 11:54:00,56.0,53.0,29.99,SSE,165,1.0,-999.0,89,-99.99,,,-99.99,,2013-09-23 15:54:00,
2013-09-23 12:12:00,56.0,53.0,29.99,ESE,110,1.0,-999.0,89,-99.99,,,-99.99,,2013-09-23 16:12:00,
2013-09-23 12:24:00,57.0,54.0,30.00,ESE,123,1.0,-999.0,90,-99.99,,,-99.99,,2013-09-23 16:24:00,
2013-09-23 12:53:00,57.0,53.0,30.01,South,175,0.0,-999.0,87,-99.99,,,-99.99,,2013-09-23 16:53:00,
2013-09-23 13:12:00,58.0,54.0,30.00,SSE,150,0.0,-999.0,85,-99.99,,,-99.99,,2013-09-23 17:12:00,
2013-09-23 13:24:00,58.0,54.0,29.99,SSE,161,0.0,-999.0,85,-99.99,,,-99.99,,2013-09-23 17:24:00,
2013-09-23 13:42:00,59.0,54.0,29.99,ESE,122,1.0,-999.0,85,-99.99,,,-99.99,,2013-09-23 17:42:00,
2013-09-23 13:52:00,59.0,54.0,29.99,NNW,327,1.0,-999.0,84,-99.99,,,-99.99,,2013-09-23 17:52:00,
2013-09-23 14:13:00,62.0,56.0,29.98,SSE,167,1.0,-999.0,82,-99.99,,,-99.99,,2013-09-23 18:13:00,
2013-09-23 14:22:00,63.0,56.0,29.98,SSE,157,1.0,-999.0,78,-99.99,,,-99.99,,2013-09-23 18:22:00,
2013-09-23 14:52:00,61.0,54.0,29.99,SE,146,0.0,-999.0,79,-99.99,,,-99.99,,2013-09-23 18:52:00,
2013-09-23 15:12:00,60.0,54.0,29.99,SE,136,0.0,-999.0,81,-99.99,,,-99.99,,2013-09-23 19:12:00,
2013-09-23 15:53:00,60.0,54.0,29.99,ESE,105,0.0,-999.0,81,-99.99,,,-99.99,,2013-09-23 19:53:00,
2013-09-23 16:12:00,60.0,55.0,29.99,East,99,0.0,-999.0,83,-99.99,,,-99.99,,2013-09-23 20:12:00,
2013-09-23 16:22:00,60.0,54.0,29.98,SE,124,1.0,-999.0,81,-99.99,,,-99.99,,2013-09-23 20:22:00,
2013-09-23 16:52:00,65.0,55.0,29.96,SSE,149,0.0,-999.0,69,-99.99,,,-99.99,,2013-09-23 20:52:00,
2013-09-23 17:12:00,65.0,55.0,29.96,SE,134,1.0,-999.0,71,-99.99,,,-99.99,,2013-09-23 21:12:00,
2013-09-23 17:23:00,65.0,57.0,29.95,ESE,113,0.0,-999.0,75,-99.99,,,-99.99,,2013-09-23 21:23:00,
2013-09-23 17:44:00,62.0,55.0,29.96,ESE,112,1.0,-999.0,78,-99.99,,,-99.99,,2013-09-23 21:44:00,
2013-09-23 17:54:00,62.0,55.0,29.96,SSE,148,0.0,-999.0,78,-99.99,,,-99.99,,2013-09-23 21:54:00,
2013-09-23 18:13:00,63.0,55.0,29.96,SSE,157,1.0,-999.0,75,-99.99,,,-99.99,,2013-09-23 22:13:00,
2013-09-23 18:24:00,64.0,56.0,29.96,SSE,152,0.0,-999.0,76,-99.99,,,-99.99,,2013-09-23 22:24:00,
2013-09-23 18:54:00,61.0,55.0,29.98,ESE,117,0.0,-999.0,82,-99.99,,,-99.99,,2013-09-23 22:54:00,
2013-09-23 19:12:00,59.0,55.0,29.98,East,100,0.0,-999.0,88,-99.99,,,-99.99,,2013-09-23 23:12:00,
2013-09-23 19:22:00,57.0,54.0,30.01,East,88,0.0,-999.0,90,-99.99,,,-99.99,,2013-09-23 23:22:00,
2013-09-23 19:54:00,55.0,53.0,30.02,East,79,0.0,-999.0,93,-99.99,,,-99.99,,2013-09-23 23:54:00,
2013-09-23 20:12:00,55.0,53.0,30.02,ENE,78,1.0,-999.0,94,-99.99,,,-99.99,,2013-09-24 00:12:00,
2013-09-23 20:22:00,55.0,53.0,30.01,ENE,71,1.0,-999.0,94,-99.99,,,-99.99,,2013-09-24 00:22:00,
2013-09-23 20:43:00,55.0,54.0,30.01,East,96,0.0,-999.0,95,-99.99,,,-99.99,,2013-09-24 00:43:00,
2013-09-23 20:52:00,55.0,54.0,30.01,East,99,0.0,-999.0,96,-99.99,,,-99.99,,2013-09-24 00:52:00,
2013-09-23 21:12:00,54.0,53.0,30.01,East,93,0.0,-999.0,96,-99.99,,,-99.99,,2013-09-24 01:12:00,
2013-09-23 21:22:00,54.0,53.0,30.01,East,85,1.0,-999.0,96,-99.99,,,-99.99,,2013-09-24 01:22:00,
2013-09-23 21:43:00,54.0,53.0,30.01,East,95,1.0,-999.0,96,-99.99,,,-99.99,,2013-09-24 01:43:00,
2013-09-23 21:52:00,54.0,53.0,30.02,East,95,1.0,-999.0,96,-99.99,,,-99.99,,2013-09-24 01:52:00,
2013-09-23 22:12:00,54.0,53.0,30.02,ESE,107,0.0,-999.0,96,-99.99,,,-99.99,,2013-09-24 02:12:00,
2013-09-23 22:23:00,54.0,53.0,30.02,SE,126,0.0,-999.0,96,-99.99,,,-99.99,,2013-09-24 02:23:00,
2013-09-23 22:42:00,54.0,53.0,30.03,ESE,106,1.0,-999.0,96,-99.99,,,-99.99,,2013-09-24 02:42:00,
2013-09-23 22:52:00,54.0,53.0,30.03,SE,139,0.0,-999.0,95,-99.99,,,-99.99,,2013-09-24 02:52:00,
2013-09-23 23:12:00,54.0,53.0,30.03,SW,215,0.0,-999.0,95,-99.99,,,-99.99,,2013-09-24 03:12:00,
2013-09-23 23:22:00,54.0,53.0,30.02,ESE,120,0.0,-999.0,96,-99.99,,,-99.99,,2013-09-24 03:22:00,
2013-09-23 23:55:00,54.0,53.0,30.02,SSW,200,0.0,-999.0,95,-99.99,,,-99.99,,2013-09-24 03:55:00,